Wallace, Indiana
Current Conditions -  °F | °C
As of 6:15 PM on Tuesday 25 Nov 2014 (Local Time) from KDNV Reporting Station
Overcast Overcast  
Wind Chill: 21°   Ceiling: 1700
Heat Index: 26°   Visibility: 10mi
Dew Point: 21°   Wind: 5mph
Humidity: 80%   Direction: 320°NW
Pressure: 30.16"   Gusts: NA
Location:  39.99°N, 87.15°W
Report Text: KDNV 252315Z AUTO 32004KT 10SM OVC017 M03/M06 A3016 RMK AO2 T10321062
Loading
Personal Weather Stations






























Interactive Weather Map New forecast layout! Learn more

10-Day Weather Forecast

Advertisements
Track Severe Weather on mobile